sensor_id;sensor_type;location;lat;lon;timestamp;P1;durP1;ratioP1;P2;durP2;ratioP2
31594;SDS011;18200;48.726;8.892;2023-04-12T00:03:55;13.05;;;3.90;;
31594;SDS011;18200;48.726;8.892;2023-04-12T00:07:55;9.90;;;3.83;;
31594;SDS011;18200;48.726;8.892;2023-04-12T00:11:57;6.10;;;2.90;;
31594;SDS011;18200;48.726;8.892;2023-04-12T00:15:58;9.00;;;2.95;;
31594;SDS011;18200;48.726;8.892;2023-04-12T00:19:58;11.07;;;3.50;;
31594;SDS011;18200;48.726;8.892;2023-04-12T00:23:59;13.05;;;3.15;;
31594;SDS011;18200;48.726;8.892;2023-04-12T00:28:00;11.88;;;3.50;;
31594;SDS011;18200;48.726;8.892;2023-04-12T00:32:00;12.48;;;3.28;;
31594;SDS011;18200;48.726;8.892;2023-04-12T00:36:04;8.50;;;3.38;;
31594;SDS011;18200;48.726;8.892;2023-04-12T00:40:04;12.38;;;3.88;;
31594;SDS011;18200;48.726;8.892;2023-04-12T00:44:08;11.07;;;3.28;;
31594;SDS011;18200;48.726;8.892;2023-04-12T00:48:09;10.20;;;2.78;;
31594;SDS011;18200;48.726;8.892;2023-04-12T00:52:10;10.27;;;3.17;;
31594;SDS011;18200;48.726;8.892;2023-04-12T00:56:14;7.03;;;2.95;;
31594;SDS011;18200;48.726;8.892;2023-04-12T01:00:16;8.63;;;3.03;;
31594;SDS011;18200;48.726;8.892;2023-04-12T01:04:17;8.20;;;3.28;;
31594;SDS011;18200;48.726;8.892;2023-04-12T01:08:21;7.43;;;3.67;;
31594;SDS011;18200;48.726;8.892;2023-04-12T01:16:52;10.70;;;3.33;;
31594;SDS011;18200;48.726;8.892;2023-04-12T01:21:06;11.80;;;3.42;;
31594;SDS011;18200;48.726;8.892;2023-04-12T01:29:29;12.43;;;3.58;;
31594;SDS011;18200;48.726;8.892;2023-04-12T01:33:30;13.82;;;4.22;;
31594;SDS011;18200;48.726;8.892;2023-04-12T01:37:33;9.18;;;3.63;;
31594;SDS011;18200;48.726;8.892;2023-04-12T01:41:38;10.27;;;3.47;;
31594;SDS011;18200;48.726;8.892;2023-04-12T01:45:40;10.93;;;4.13;;
31594;SDS011;18200;48.726;8.892;2023-04-12T01:54:25;7.07;;;3.10;;
31594;SDS011;18200;48.726;8.892;2023-04-12T01:58:28;7.82;;;3.40;;
31594;SDS011;18200;48.726;8.892;2023-04-12T02:02:31;10.23;;;4.57;;
31594;SDS011;18200;48.726;8.892;2023-04-12T02:06:34;12.77;;;3.50;;
31594;SDS011;18200;48.726;8.892;2023-04-12T02:10:36;14.70;;;4.30;;
31594;SDS011;18200;48.726;8.892;2023-04-12T02:14:40;15.10;;;4.30;;
31594;SDS011;18200;48.726;8.892;2023-04-12T02:18:40;12.77;;;3.97;;
31594;SDS011;18200;48.726;8.892;2023-04-12T02:22:42;8.80;;;3.55;;
31594;SDS011;18200;48.726;8.892;2023-04-12T02:26:43;8.63;;;3.45;;
31594;SDS011;18200;48.726;8.892;2023-04-12T02:30:44;14.05;;;4.53;;
31594;SDS011;18200;48.726;8.892;2023-04-12T02:34:45;9.57;;;3.33;;
31594;SDS011;18200;48.726;8.892;2023-04-12T02:38:52;11.13;;;3.80;;
31594;SDS011;18200;48.726;8.892;2023-04-12T02:42:53;12.40;;;3.72;;
31594;SDS011;18200;48.726;8.892;2023-04-12T02:46:55;10.05;;;3.92;;
31594;SDS011;18200;48.726;8.892;2023-04-12T02:50:56;11.52;;;3.88;;
31594;SDS011;18200;48.726;8.892;2023-04-12T02:54:58;13.85;;;4.47;;
31594;SDS011;18200;48.726;8.892;2023-04-12T02:58:59;12.88;;;4.00;;
31594;SDS011;18200;48.726;8.892;2023-04-12T03:03:33;10.05;;;3.97;;
31594;SDS011;18200;48.726;8.892;2023-04-12T03:07:44;10.48;;;4.85;;
31594;SDS011;18200;48.726;8.892;2023-04-12T03:11:45;12.93;;;4.65;;
31594;SDS011;18200;48.726;8.892;2023-04-12T03:15:47;7.55;;;4.00;;
31594;SDS011;18200;48.726;8.892;2023-04-12T03:19:49;8.95;;;3.90;;
31594;SDS011;18200;48.726;8.892;2023-04-12T03:23:52;11.10;;;3.58;;
31594;SDS011;18200;48.726;8.892;2023-04-12T03:27:53;10.10;;;3.90;;
31594;SDS011;18200;48.726;8.892;2023-04-12T03:31:58;11.10;;;3.67;;
31594;SDS011;18200;48.726;8.892;2023-04-12T03:35:59;8.68;;;3.03;;
31594;SDS011;18200;48.726;8.892;2023-04-12T03:40:02;6.07;;;3.10;;
31594;SDS011;18200;48.726;8.892;2023-04-12T03:44:03;7.03;;;2.80;;
31594;SDS011;18200;48.726;8.892;2023-04-12T03:48:05;8.57;;;2.80;;
31594;SDS011;18200;48.726;8.892;2023-04-12T03:52:14;9.82;;;3.00;;
31594;SDS011;18200;48.726;8.892;2023-04-12T03:56:18;8.30;;;2.83;;
31594;SDS011;18200;48.726;8.892;2023-04-12T04:00:22;6.82;;;2.88;;
31594;SDS011;18200;48.726;8.892;2023-04-12T04:04:40;7.75;;;2.50;;
31594;SDS011;18200;48.726;8.892;2023-04-12T04:08:44;6.07;;;2.70;;
31594;SDS011;18200;48.726;8.892;2023-04-12T04:12:45;8.85;;;2.60;;
31594;SDS011;18200;48.726;8.892;2023-04-12T04:16:46;4.80;;;2.40;;
31594;SDS011;18200;48.726;8.892;2023-04-12T04:20:47;4.22;;;2.30;;
31594;SDS011;18200;48.726;8.892;2023-04-12T04:24:47;10.43;;;2.85;;
31594;SDS011;18200;48.726;8.892;2023-04-12T04:28:49;8.45;;;3.00;;
31594;SDS011;18200;48.726;8.892;2023-04-12T04:32:54;6.47;;;2.80;;
31594;SDS011;18200;48.726;8.892;2023-04-12T04:36:57;8.70;;;2.58;;
31594;SDS011;18200;48.726;8.892;2023-04-12T04:41:00;5.95;;;2.40;;
31594;SDS011;18200;48.726;8.892;2023-04-12T04:45:15;6.10;;;2.70;;
31594;SDS011;18200;48.726;8.892;2023-04-12T04:49:18;6.80;;;2.50;;
31594;SDS011;18200;48.726;8.892;2023-04-12T04:53:20;6.32;;;2.30;;
31594;SDS011;18200;48.726;8.892;2023-04-12T04:57:22;4.03;;;2.83;;
31594;SDS011;18200;48.726;8.892;2023-04-12T05:01:24;9.15;;;2.63;;
31594;SDS011;18200;48.726;8.892;2023-04-12T05:05:29;9.57;;;3.60;;
31594;SDS011;18200;48.726;8.892;2023-04-12T05:09:36;12.23;;;4.72;;
31594;SDS011;18200;48.726;8.892;2023-04-12T05:13:37;14.18;;;5.03;;
31594;SDS011;18200;48.726;8.892;2023-04-12T05:17:37;12.32;;;4.30;;
31594;SDS011;18200;48.726;8.892;2023-04-12T05:21:37;10.13;;;4.47;;
31594;SDS011;18200;48.726;8.892;2023-04-12T05:25:45;13.13;;;6.00;;
31594;SDS011;18200;48.726;8.892;2023-04-12T05:29:47;10.30;;;5.55;;
31594;SDS011;18200;48.726;8.892;2023-04-12T05:33:50;14.45;;;5.30;;
31594;SDS011;18200;48.726;8.892;2023-04-12T05:37:53;10.70;;;4.32;;
31594;SDS011;18200;48.726;8.892;2023-04-12T05:41:54;9.65;;;3.47;;
31594;SDS011;18200;48.726;8.892;2023-04-12T05:45:54;9.73;;;3.85;;
31594;SDS011;18200;48.726;8.892;2023-04-12T05:49:56;7.35;;;3.25;;
31594;SDS011;18200;48.726;8.892;2023-04-12T05:53:57;9.38;;;3.33;;
31594;SDS011;18200;48.726;8.892;2023-04-12T05:58:00;8.45;;;2.70;;
31594;SDS011;18200;48.726;8.892;2023-04-12T06:02:02;14.63;;;3.90;;
31594;SDS011;18200;48.726;8.892;2023-04-12T06:06:03;13.23;;;4.97;;
31594;SDS011;18200;48.726;8.892;2023-04-12T06:10:05;8.68;;;3.80;;
31594;SDS011;18200;48.726;8.892;2023-04-12T06:14:06;9.50;;;3.13;;
31594;SDS011;18200;48.726;8.892;2023-04-12T06:18:07;5.55;;;2.92;;
31594;SDS011;18200;48.726;8.892;2023-04-12T06:22:07;10.95;;;3.90;;
31594;SDS011;18200;48.726;8.892;2023-04-12T06:26:08;10.63;;;3.22;;
31594;SDS011;18200;48.726;8.892;2023-04-12T06:30:09;5.82;;;3.40;;
31594;SDS011;18200;48.726;8.892;2023-04-12T06:34:10;10.98;;;4.60;;
31594;SDS011;18200;48.726;8.892;2023-04-12T06:38:11;8.80;;;4.00;;
31594;SDS011;18200;48.726;8.892;2023-04-12T06:42:12;8.13;;;3.90;;
31594;SDS011;18200;48.726;8.892;2023-04-12T06:46:14;8.07;;;3.63;;
31594;SDS011;18200;48.726;8.892;2023-04-12T06:50:14;4.57;;;2.67;;
31594;SDS011;18200;48.726;8.892;2023-04-12T06:54:15;4.57;;;2.70;;
31594;SDS011;18200;48.726;8.892;2023-04-12T06:58:15;7.85;;;3.25;;
31594;SDS011;18200;48.726;8.892;2023-04-12T07:02:16;6.32;;;2.83;;
31594;SDS011;18200;48.726;8.892;2023-04-12T07:06:17;7.55;;;3.50;;
31594;SDS011;18200;48.726;8.892;2023-04-12T07:10:17;6.95;;;4.00;;
31594;SDS011;18200;48.726;8.892;2023-04-12T07:14:18;9.73;;;4.95;;
31594;SDS011;18200;48.726;8.892;2023-04-12T07:18:18;9.23;;;3.55;;
31594;SDS011;18200;48.726;8.892;2023-04-12T07:22:18;5.35;;;3.60;;
31594;SDS011;18200;48.726;8.892;2023-04-12T07:26:19;5.55;;;3.28;;
31594;SDS011;18200;48.726;8.892;2023-04-12T07:30:20;6.15;;;3.05;;
31594;SDS011;18200;48.726;8.892;2023-04-12T07:34:21;8.63;;;3.00;;
31594;SDS011;18200;48.726;8.892;2023-04-12T07:38:21;4.88;;;2.90;;
31594;SDS011;18200;48.726;8.892;2023-04-12T07:42:21;8.25;;;2.83;;
31594;SDS011;18200;48.726;8.892;2023-04-12T07:46:22;6.55;;;3.08;;
31594;SDS011;18200;48.726;8.892;2023-04-12T07:50:22;7.32;;;3.47;;
31594;SDS011;18200;48.726;8.892;2023-04-12T07:54:25;4.90;;;2.65;;
31594;SDS011;18200;48.726;8.892;2023-04-12T07:58:26;6.83;;;3.47;;
31594;SDS011;18200;48.726;8.892;2023-04-12T08:02:26;8.90;;;3.22;;
31594;SDS011;18200;48.726;8.892;2023-04-12T08:06:27;10.18;;;3.38;;
31594;SDS011;18200;48.726;8.892;2023-04-12T08:10:28;5.93;;;2.95;;
31594;SDS011;18200;48.726;8.892;2023-04-12T08:14:28;7.72;;;3.33;;
31594;SDS011;18200;48.726;8.892;2023-04-12T08:18:29;5.25;;;3.10;;
31594;SDS011;18200;48.726;8.892;2023-04-12T08:22:29;9.65;;;3.97;;
31594;SDS011;18200;48.726;8.892;2023-04-12T08:26:30;8.13;;;3.40;;
31594;SDS011;18200;48.726;8.892;2023-04-12T08:30:30;7.97;;;3.67;;
31594;SDS011;18200;48.726;8.892;2023-04-12T08:34:31;15.85;;;5.22;;
31594;SDS011;18200;48.726;8.892;2023-04-12T08:38:32;11.75;;;6.03;;
31594;SDS011;18200;48.726;8.892;2023-04-12T08:42:33;7.53;;;3.70;;
31594;SDS011;18200;48.726;8.892;2023-04-12T08:46:36;7.68;;;3.15;;
31594;SDS011;18200;48.726;8.892;2023-04-12T08:50:36;5.32;;;2.88;;
31594;SDS011;18200;48.726;8.892;2023-04-12T08:54:36;7.53;;;3.75;;
31594;SDS011;18200;48.726;8.892;2023-04-12T08:58:40;6.20;;;2.72;;
31594;SDS011;18200;48.726;8.892;2023-04-12T09:02:43;9.10;;;2.75;;
31594;SDS011;18200;48.726;8.892;2023-04-12T09:06:46;6.60;;;2.80;;
31594;SDS011;18200;48.726;8.892;2023-04-12T09:10:46;8.85;;;2.75;;
31594;SDS011;18200;48.726;8.892;2023-04-12T09:14:46;7.20;;;3.17;;
31594;SDS011;18200;48.726;8.892;2023-04-12T09:18:47;10.10;;;2.58;;
31594;SDS011;18200;48.726;8.892;2023-04-12T09:22:49;8.75;;;3.20;;
31594;SDS011;18200;48.726;8.892;2023-04-12T09:27:02;7.00;;;3.22;;
31594;SDS011;18200;48.726;8.892;2023-04-12T09:31:04;10.13;;;3.55;;
31594;SDS011;18200;48.726;8.892;2023-04-12T09:35:15;7.05;;;2.72;;
31594;SDS011;18200;48.726;8.892;2023-04-12T09:39:15;6.38;;;2.70;;
31594;SDS011;18200;48.726;8.892;2023-04-12T09:43:16;7.88;;;2.78;;
31594;SDS011;18200;48.726;8.892;2023-04-12T09:47:16;6.28;;;2.60;;
31594;SDS011;18200;48.726;8.892;2023-04-12T09:51:26;15.82;;;3.63;;
31594;SDS011;18200;48.726;8.892;2023-04-12T09:55:29;5.03;;;2.78;;
31594;SDS011;18200;48.726;8.892;2023-04-12T09:59:31;8.75;;;2.85;;
31594;SDS011;18200;48.726;8.892;2023-04-12T10:03:34;5.75;;;2.70;;
31594;SDS011;18200;48.726;8.892;2023-04-12T10:07:35;4.80;;;2.45;;
31594;SDS011;18200;48.726;8.892;2023-04-12T10:11:36;7.20;;;2.80;;
31594;SDS011;18200;48.726;8.892;2023-04-12T10:15:40;5.65;;;2.50;;
31594;SDS011;18200;48.726;8.892;2023-04-12T10:19:44;6.17;;;2.30;;
31594;SDS011;18200;48.726;8.892;2023-04-12T10:23:46;4.57;;;2.17;;
31594;SDS011;18200;48.726;8.892;2023-04-12T10:27:48;6.18;;;2.10;;
31594;SDS011;18200;48.726;8.892;2023-04-12T10:31:48;3.78;;;2.03;;
31594;SDS011;18200;48.726;8.892;2023-04-12T10:36:01;4.35;;;1.90;;
31594;SDS011;18200;48.726;8.892;2023-04-12T10:40:02;5.13;;;2.08;;
31594;SDS011;18200;48.726;8.892;2023-04-12T10:48:36;5.53;;;2.20;;
31594;SDS011;18200;48.726;8.892;2023-04-12T10:57:39;5.10;;;1.83;;
31594;SDS011;18200;48.726;8.892;2023-04-12T11:06:09;6.70;;;1.92;;
31594;SDS011;18200;48.726;8.892;2023-04-12T11:10:28;7.55;;;1.95;;
31594;SDS011;18200;48.726;8.892;2023-04-12T11:14:48;4.63;;;1.92;;
31594;SDS011;18200;48.726;8.892;2023-04-12T11:18:52;4.53;;;1.90;;
31594;SDS011;18200;48.726;8.892;2023-04-12T11:22:52;5.15;;;2.60;;
31594;SDS011;18200;48.726;8.892;2023-04-12T11:26:56;5.82;;;1.67;;
31594;SDS011;18200;48.726;8.892;2023-04-12T11:30:58;2.90;;;1.65;;
31594;SDS011;18200;48.726;8.892;2023-04-12T11:34:58;3.90;;;1.67;;
31594;SDS011;18200;48.726;8.892;2023-04-12T11:39:02;4.28;;;1.60;;
31594;SDS011;18200;48.726;8.892;2023-04-12T11:43:03;3.50;;;1.30;;
31594;SDS011;18200;48.726;8.892;2023-04-12T11:47:03;5.28;;;1.50;;
31594;SDS011;18200;48.726;8.892;2023-04-12T11:51:22;4.80;;;1.70;;
31594;SDS011;18200;48.726;8.892;2023-04-12T11:55:27;4.53;;;1.75;;
31594;SDS011;18200;48.726;8.892;2023-04-12T11:59:33;4.28;;;1.70;;
31594;SDS011;18200;48.726;8.892;2023-04-12T12:03:34;5.85;;;1.67;;
31594;SDS011;18200;48.726;8.892;2023-04-12T12:07:35;2.70;;;1.13;;
31594;SDS011;18200;48.726;8.892;2023-04-12T12:11:36;3.17;;;1.40;;
31594;SDS011;18200;48.726;8.892;2023-04-12T12:15:36;3.95;;;1.83;;
31594;SDS011;18200;48.726;8.892;2023-04-12T12:19:41;6.78;;;1.45;;
31594;SDS011;18200;48.726;8.892;2023-04-12T12:23:45;2.55;;;1.02;;
31594;SDS011;18200;48.726;8.892;2023-04-12T12:27:46;5.47;;;2.15;;
31594;SDS011;18200;48.726;8.892;2023-04-12T12:31:47;1.92;;;1.20;;
31594;SDS011;18200;48.726;8.892;2023-04-12T12:35:57;4.70;;;2.05;;
31594;SDS011;18200;48.726;8.892;2023-04-12T12:44:06;4.72;;;1.77;;
31594;SDS011;18200;48.726;8.892;2023-04-12T12:48:07;3.50;;;1.65;;
31594;SDS011;18200;48.726;8.892;2023-04-12T12:52:07;4.53;;;1.80;;
31594;SDS011;18200;48.726;8.892;2023-04-12T12:56:07;4.00;;;1.60;;
31594;SDS011;18200;48.726;8.892;2023-04-12T13:00:10;5.90;;;1.95;;
31594;SDS011;18200;48.726;8.892;2023-04-12T13:04:12;2.13;;;1.25;;
31594;SDS011;18200;48.726;8.892;2023-04-12T13:08:12;5.05;;;1.42;;
31594;SDS011;18200;48.726;8.892;2023-04-12T13:12:12;4.47;;;1.80;;
31594;SDS011;18200;48.726;8.892;2023-04-12T13:16:16;3.72;;;1.20;;
31594;SDS011;18200;48.726;8.892;2023-04-12T13:20:16;6.70;;;2.00;;
31594;SDS011;18200;48.726;8.892;2023-04-12T13:24:16;4.05;;;1.40;;
31594;SDS011;18200;48.726;8.892;2023-04-12T13:28:17;5.30;;;1.48;;
31594;SDS011;18200;48.726;8.892;2023-04-12T13:32:18;3.85;;;1.90;;
31594;SDS011;18200;48.726;8.892;2023-04-12T13:36:18;4.05;;;1.90;;
31594;SDS011;18200;48.726;8.892;2023-04-12T13:40:19;3.20;;;1.38;;
31594;SDS011;18200;48.726;8.892;2023-04-12T13:44:19;3.88;;;1.30;;
31594;SDS011;18200;48.726;8.892;2023-04-12T13:48:19;2.55;;;1.55;;
31594;SDS011;18200;48.726;8.892;2023-04-12T13:52:20;2.33;;;1.02;;
31594;SDS011;18200;48.726;8.892;2023-04-12T13:56:20;2.53;;;1.15;;
31594;SDS011;18200;48.726;8.892;2023-04-12T14:00:21;3.92;;;1.48;;
31594;SDS011;18200;48.726;8.892;2023-04-12T14:04:22;2.70;;;1.30;;
31594;SDS011;18200;48.726;8.892;2023-04-12T14:08:22;3.38;;;1.30;;
31594;SDS011;18200;48.726;8.892;2023-04-12T14:12:22;2.20;;;1.20;;
31594;SDS011;18200;48.726;8.892;2023-04-12T14:16:23;3.13;;;0.93;;
31594;SDS011;18200;48.726;8.892;2023-04-12T14:20:23;3.25;;;1.10;;
31594;SDS011;18200;48.726;8.892;2023-04-12T14:24:24;2.03;;;1.10;;
31594;SDS011;18200;48.726;8.892;2023-04-12T14:28:26;2.65;;;1.20;;
31594;SDS011;18200;48.726;8.892;2023-04-12T14:32:29;4.20;;;1.70;;
31594;SDS011;18200;48.726;8.892;2023-04-12T14:36:30;3.20;;;1.65;;
31594;SDS011;18200;48.726;8.892;2023-04-12T14:40:32;2.47;;;1.08;;
31594;SDS011;18200;48.726;8.892;2023-04-12T14:44:32;1.70;;;0.73;;
31594;SDS011;18200;48.726;8.892;2023-04-12T14:48:33;2.67;;;1.20;;
31594;SDS011;18200;48.726;8.892;2023-04-12T14:52:33;3.20;;;1.35;;
31594;SDS011;18200;48.726;8.892;2023-04-12T14:56:33;2.70;;;1.08;;
31594;SDS011;18200;48.726;8.892;2023-04-12T15:00:35;2.70;;;1.10;;
31594;SDS011;18200;48.726;8.892;2023-04-12T15:04:36;1.13;;;0.30;;
31594;SDS011;18200;48.726;8.892;2023-04-12T15:08:37;2.25;;;0.50;;
31594;SDS011;18200;48.726;8.892;2023-04-12T15:12:40;0.52;;;0.32;;
31594;SDS011;18200;48.726;8.892;2023-04-12T15:16:41;1.08;;;0.30;;
31594;SDS011;18200;48.726;8.892;2023-04-12T15:20:41;0.60;;;0.32;;
31594;SDS011;18200;48.726;8.892;2023-04-12T15:24:42;1.27;;;0.50;;
31594;SDS011;18200;48.726;8.892;2023-04-12T15:28:42;0.30;;;0.30;;
31594;SDS011;18200;48.726;8.892;2023-04-12T15:32:43;2.10;;;0.30;;
31594;SDS011;18200;48.726;8.892;2023-04-12T15:36:43;2.47;;;0.50;;
31594;SDS011;18200;48.726;8.892;2023-04-12T15:40:44;0.40;;;0.40;;
31594;SDS011;18200;48.726;8.892;2023-04-12T15:44:45;2.10;;;0.80;;
31594;SDS011;18200;48.726;8.892;2023-04-12T15:48:45;0.60;;;0.60;;
31594;SDS011;18200;48.726;8.892;2023-04-12T15:52:47;1.25;;;0.60;;
31594;SDS011;18200;48.726;8.892;2023-04-12T15:56:47;2.03;;;0.77;;
31594;SDS011;18200;48.726;8.892;2023-04-12T16:00:47;2.20;;;0.47;;
31594;SDS011;18200;48.726;8.892;2023-04-12T16:04:48;2.28;;;0.25;;
31594;SDS011;18200;48.726;8.892;2023-04-12T16:08:50;2.15;;;1.60;;
31594;SDS011;18200;48.726;8.892;2023-04-12T16:12:52;1.65;;;0.98;;
31594;SDS011;18200;48.726;8.892;2023-04-12T16:16:53;0.80;;;0.40;;
31594;SDS011;18200;48.726;8.892;2023-04-12T16:20:53;2.22;;;0.43;;
31594;SDS011;18200;48.726;8.892;2023-04-12T16:24:54;0.50;;;0.50;;
31594;SDS011;18200;48.726;8.892;2023-04-12T16:28:55;1.38;;;1.00;;
31594;SDS011;18200;48.726;8.892;2023-04-12T16:32:56;0.68;;;0.50;;
31594;SDS011;18200;48.726;8.892;2023-04-12T16:36:57;2.83;;;1.77;;
31594;SDS011;18200;48.726;8.892;2023-04-12T16:40:57;1.10;;;0.73;;
31594;SDS011;18200;48.726;8.892;2023-04-12T16:44:57;0.77;;;0.60;;
31594;SDS011;18200;48.726;8.892;2023-04-12T16:48:58;0.35;;;0.30;;
31594;SDS011;18200;48.726;8.892;2023-04-12T16:53:02;1.95;;;1.45;;
31594;SDS011;18200;48.726;8.892;2023-04-12T16:57:03;1.15;;;0.57;;
31594;SDS011;18200;48.726;8.892;2023-04-12T17:01:03;0.40;;;0.40;;
31594;SDS011;18200;48.726;8.892;2023-04-12T17:05:04;3.80;;;2.28;;
31594;SDS011;18200;48.726;8.892;2023-04-12T17:09:05;5.80;;;5.20;;
31594;SDS011;18200;48.726;8.892;2023-04-12T17:13:05;2.75;;;0.85;;
31594;SDS011;18200;48.726;8.892;2023-04-12T17:17:05;1.58;;;1.48;;
31594;SDS011;18200;48.726;8.892;2023-04-12T17:21:06;1.00;;;0.85;;
31594;SDS011;18200;48.726;8.892;2023-04-12T17:25:07;7.03;;;5.35;;
31594;SDS011;18200;48.726;8.892;2023-04-12T17:29:08;5.68;;;3.50;;
31594;SDS011;18200;48.726;8.892;2023-04-12T17:33:09;4.07;;;2.78;;
31594;SDS011;18200;48.726;8.892;2023-04-12T17:37:09;0.95;;;0.77;;
31594;SDS011;18200;48.726;8.892;2023-04-12T17:41:09;4.32;;;2.88;;
31594;SDS011;18200;48.726;8.892;2023-04-12T17:45:10;3.35;;;1.48;;
31594;SDS011;18200;48.726;8.892;2023-04-12T17:49:13;1.50;;;1.40;;
31594;SDS011;18200;48.726;8.892;2023-04-12T17:53:13;2.20;;;1.40;;
31594;SDS011;18200;48.726;8.892;2023-04-12T17:57:14;2.97;;;1.85;;
31594;SDS011;18200;48.726;8.892;2023-04-12T18:01:14;7.68;;;5.85;;
31594;SDS011;18200;48.726;8.892;2023-04-12T18:05:15;5.93;;;4.05;;
31594;SDS011;18200;48.726;8.892;2023-04-12T18:09:16;5.70;;;3.60;;
31594;SDS011;18200;48.726;8.892;2023-04-12T18:13:17;6.10;;;2.95;;
31594;SDS011;18200;48.726;8.892;2023-04-12T18:17:17;5.38;;;2.10;;
31594;SDS011;18200;48.726;8.892;2023-04-12T18:21:17;9.00;;;3.10;;
31594;SDS011;18200;48.726;8.892;2023-04-12T18:25:20;1.70;;;1.30;;
31594;SDS011;18200;48.726;8.892;2023-04-12T18:29:20;1.70;;;1.20;;
31594;SDS011;18200;48.726;8.892;2023-04-12T18:33:21;2.40;;;1.75;;
31594;SDS011;18200;48.726;8.892;2023-04-12T18:37:21;2.30;;;1.55;;
31594;SDS011;18200;48.726;8.892;2023-04-12T18:41:21;2.63;;;1.35;;
31594;SDS011;18200;48.726;8.892;2023-04-12T18:45:22;2.33;;;1.30;;
31594;SDS011;18200;48.726;8.892;2023-04-12T18:49:22;5.00;;;2.90;;
31594;SDS011;18200;48.726;8.892;2023-04-12T18:53:23;4.30;;;2.22;;
31594;SDS011;18200;48.726;8.892;2023-04-12T18:57:23;4.60;;;2.63;;
31594;SDS011;18200;48.726;8.892;2023-04-12T19:01:24;2.75;;;2.42;;
31594;SDS011;18200;48.726;8.892;2023-04-12T19:05:24;4.57;;;3.70;;
31594;SDS011;18200;48.726;8.892;2023-04-12T19:09:26;7.03;;;5.25;;
31594;SDS011;18200;48.726;8.892;2023-04-12T19:13:27;9.80;;;5.43;;
31594;SDS011;18200;48.726;8.892;2023-04-12T19:17:27;6.28;;;3.40;;
31594;SDS011;18200;48.726;8.892;2023-04-12T19:21:28;2.67;;;1.90;;
31594;SDS011;18200;48.726;8.892;2023-04-12T19:25:30;4.22;;;3.28;;
31594;SDS011;18200;48.726;8.892;2023-04-12T19:29:32;3.67;;;2.10;;
31594;SDS011;18200;48.726;8.892;2023-04-12T19:33:32;2.05;;;1.60;;
31594;SDS011;18200;48.726;8.892;2023-04-12T19:37:32;7.60;;;3.20;;
31594;SDS011;18200;48.726;8.892;2023-04-12T19:41:33;2.55;;;2.00;;
31594;SDS011;18200;48.726;8.892;2023-04-12T19:45:36;2.40;;;1.85;;
31594;SDS011;18200;48.726;8.892;2023-04-12T19:49:36;4.78;;;2.88;;
31594;SDS011;18200;48.726;8.892;2023-04-12T19:53:37;7.07;;;5.03;;
31594;SDS011;18200;48.726;8.892;2023-04-12T19:57:39;6.90;;;4.60;;
31594;SDS011;18200;48.726;8.892;2023-04-12T20:01:39;4.13;;;3.08;;
31594;SDS011;18200;48.726;8.892;2023-04-12T20:05:58;4.95;;;1.52;;
31594;SDS011;18200;48.726;8.892;2023-04-12T20:09:58;1.52;;;1.20;;
31594;SDS011;18200;48.726;8.892;2023-04-12T20:13:59;3.55;;;1.38;;
31594;SDS011;18200;48.726;8.892;2023-04-12T20:17:59;1.30;;;0.85;;
31594;SDS011;18200;48.726;8.892;2023-04-12T20:22:00;2.25;;;0.98;;
31594;SDS011;18200;48.726;8.892;2023-04-12T20:26:00;0.65;;;0.65;;
31594;SDS011;18200;48.726;8.892;2023-04-12T20:30:04;0.88;;;0.68;;
31594;SDS011;18200;48.726;8.892;2023-04-12T20:34:06;0.80;;;0.40;;
31594;SDS011;18200;48.726;8.892;2023-04-12T20:38:06;1.50;;;0.43;;
31594;SDS011;18200;48.726;8.892;2023-04-12T20:42:07;0.35;;;0.35;;
31594;SDS011;18200;48.726;8.892;2023-04-12T20:46:08;1.25;;;0.50;;
31594;SDS011;18200;48.726;8.892;2023-04-12T20:50:14;1.38;;;0.35;;
31594;SDS011;18200;48.726;8.892;2023-04-12T20:54:14;0.57;;;0.30;;
31594;SDS011;18200;48.726;8.892;2023-04-12T20:58:15;2.47;;;0.40;;
31594;SDS011;18200;48.726;8.892;2023-04-12T21:02:17;0.50;;;0.30;;
31594;SDS011;18200;48.726;8.892;2023-04-12T21:06:17;1.33;;;0.55;;
31594;SDS011;18200;48.726;8.892;2023-04-12T21:10:17;1.60;;;0.52;;
31594;SDS011;18200;48.726;8.892;2023-04-12T21:14:18;2.17;;;0.60;;
31594;SDS011;18200;48.726;8.892;2023-04-12T21:18:22;3.72;;;2.17;;
31594;SDS011;18200;48.726;8.892;2023-04-12T21:22:22;1.98;;;1.60;;
31594;SDS011;18200;48.726;8.892;2023-04-12T21:26:23;0.60;;;0.60;;
31594;SDS011;18200;48.726;8.892;2023-04-12T21:30:24;3.55;;;1.35;;
31594;SDS011;18200;48.726;8.892;2023-04-12T21:34:25;0.60;;;0.60;;
31594;SDS011;18200;48.726;8.892;2023-04-12T21:38:25;0.63;;;0.40;;
31594;SDS011;18200;48.726;8.892;2023-04-12T21:42:25;1.25;;;0.50;;
31594;SDS011;18200;48.726;8.892;2023-04-12T21:46:28;2.05;;;0.60;;
31594;SDS011;18200;48.726;8.892;2023-04-12T21:50:28;1.70;;;0.38;;
31594;SDS011;18200;48.726;8.892;2023-04-12T21:54:29;1.27;;;0.50;;
31594;SDS011;18200;48.726;8.892;2023-04-12T21:58:30;0.30;;;0.30;;
31594;SDS011;18200;48.726;8.892;2023-04-12T22:02:32;1.63;;;0.40;;
31594;SDS011;18200;48.726;8.892;2023-04-12T22:06:32;1.70;;;0.82;;
31594;SDS011;18200;48.726;8.892;2023-04-12T22:10:33;0.80;;;0.40;;
31594;SDS011;18200;48.726;8.892;2023-04-12T22:14:34;1.42;;;0.80;;
31594;SDS011;18200;48.726;8.892;2023-04-12T22:18:35;1.08;;;0.40;;
31594;SDS011;18200;48.726;8.892;2023-04-12T22:22:36;1.15;;;0.60;;
31594;SDS011;18200;48.726;8.892;2023-04-12T22:26:36;1.48;;;0.50;;
31594;SDS011;18200;48.726;8.892;2023-04-12T22:30:37;2.05;;;0.40;;
31594;SDS011;18200;48.726;8.892;2023-04-12T22:34:37;2.25;;;0.63;;
31594;SDS011;18200;48.726;8.892;2023-04-12T22:38:38;1.13;;;0.80;;
31594;SDS011;18200;48.726;8.892;2023-04-12T22:42:39;1.00;;;0.70;;
31594;SDS011;18200;48.726;8.892;2023-04-12T22:46:45;2.10;;;0.70;;
31594;SDS011;18200;48.726;8.892;2023-04-12T22:50:47;1.98;;;0.73;;
31594;SDS011;18200;48.726;8.892;2023-04-12T22:54:47;2.40;;;0.52;;
31594;SDS011;18200;48.726;8.892;2023-04-12T22:58:48;1.88;;;0.70;;
31594;SDS011;18200;48.726;8.892;2023-04-12T23:02:48;2.83;;;0.50;;
31594;SDS011;18200;48.726;8.892;2023-04-12T23:06:51;2.10;;;0.77;;
31594;SDS011;18200;48.726;8.892;2023-04-12T23:10:54;1.10;;;0.63;;
31594;SDS011;18200;48.726;8.892;2023-04-12T23:15:01;3.80;;;0.70;;
31594;SDS011;18200;48.726;8.892;2023-04-12T23:19:02;3.05;;;0.70;;
31594;SDS011;18200;48.726;8.892;2023-04-12T23:23:05;1.85;;;0.88;;
31594;SDS011;18200;48.726;8.892;2023-04-12T23:27:05;1.55;;;0.50;;
31594;SDS011;18200;48.726;8.892;2023-04-12T23:31:06;2.35;;;0.70;;
31594;SDS011;18200;48.726;8.892;2023-04-12T23:35:07;2.05;;;0.70;;
31594;SDS011;18200;48.726;8.892;2023-04-12T23:39:07;1.45;;;0.60;;
31594;SDS011;18200;48.726;8.892;2023-04-12T23:43:08;2.25;;;0.90;;
31594;SDS011;18200;48.726;8.892;2023-04-12T23:47:09;1.63;;;0.65;;
31594;SDS011;18200;48.726;8.892;2023-04-12T23:51:09;1.65;;;0.80;;
31594;SDS011;18200;48.726;8.892;2023-04-12T23:55:09;3.08;;;0.90;;
31594;SDS011;18200;48.726;8.892;2023-04-12T23:59:10;2.15;;;0.70;;
